Time;durP1;ratioP1;P1;durP2;ratioP2;P2;SDS_P1;SDS_P2;PMS_P1;PMS_P2;Temp;Humidity;BMP_temperature;BMP_pressure;BME280_temperature;BME280_humidity;BME280_pressure;Samples;Min_cycle;Max_cycle;Signal;HPM_P1;HPM_P2
2023/04/29 00:02:09;;;;;;;;;;;;;;;16.49;56.29;100327.19;4973870;28;6768;-77
2023/04/29 00:04:35;;;;;;;;;;;;;;;16.47;55.91;100329.72;4967688;28;6947;-73
2023/04/29 00:07:01;;;;;;;;;;;;;;;16.46;55.81;100330.56;4994116;28;7941;-73
2023/04/29 00:09:26;;;;;;;;;;;;;;;16.45;55.62;100334.00;4975542;28;6955;-76
2023/04/29 00:11:52;;;;;;;;;;;;;;;16.44;55.21;100337.44;4976085;28;6915;-74
2023/04/29 00:14:17;;;;;;;;;;;;;;;16.46;55.44;100342.63;4979289;28;7241;-75
2023/04/29 00:16:43;;;;;;;;;;;;;;;16.45;55.33;100346.94;4982117;28;7753;-73
2023/04/29 00:19:09;;;;;;;;;;;;;;;16.45;54.96;100341.75;4976206;28;7245;-75
2023/04/29 00:21:34;;;;;;;;;;;;;;;16.40;54.90;100340.75;5013298;28;7034;-72
2023/04/29 00:24:00;;;;;;;;;;;;;;;16.36;55.11;100350.16;4979076;28;7293;-75
2023/04/29 00:26:26;;;;;;;;;;;;;;;16.33;55.05;100349.25;4978890;28;6760;-74
2023/04/29 00:28:51;;;;;;;;;;;;;;;16.30;55.06;100359.50;4964357;28;6811;-75
2023/04/29 00:31:17;;;;;;;;;;;;;;;16.28;55.31;100366.34;4976037;28;7165;-73
2023/04/29 00:33:43;;;;;;;;;;;;;;;16.23;54.85;100361.94;4980864;28;6780;-75
2023/04/29 00:36:09;;;;;;;;;;;;;;;16.20;55.58;100364.44;4976907;28;6884;-74
2023/04/29 00:38:34;;;;;;;;;;;;;;;16.19;55.22;100360.09;4978601;28;6932;-75
2023/04/29 00:41:01;;;;;;;;;;;;;;;16.15;55.36;100365.16;4991502;28;6939;-74
2023/04/29 00:43:27;;;;;;;;;;;;;;;16.13;55.49;100359.97;4976191;28;7101;-75
2023/04/29 00:45:53;;;;;;;;;;;;;;;16.13;55.38;100367.72;4979574;28;6764;-77
2023/04/29 00:48:18;;;;;;;;;;;;;;;16.12;55.43;100360.78;4975438;28;6768;-77
2023/04/29 00:50:44;;;;;;;;;;;;;;;16.10;55.54;100367.63;4996485;28;7279;-73
2023/04/29 00:53:13;;;;;;;;;;;;;;;16.09;55.37;100365.88;4978907;28;8562;-73
2023/04/29 00:55:42;;;;;;;;;;;;;;;16.06;55.80;100369.25;4977068;28;6811;-74
2023/04/29 00:58:09;;;;;;;;;;;;;;;16.05;55.58;100374.41;5012215;28;7391;-73
2023/04/29 01:00:35;;;;;;;;;;;;;;;16.03;55.97;100373.47;5000533;28;6838;-74
2023/04/29 01:03:02;;;;;;;;;;;;;;;16.01;56.06;100377.75;4958858;28;7334;-73
2023/04/29 01:05:28;;;;;;;;;;;;;;;15.98;55.73;100369.91;4978874;28;7329;-74
2023/04/29 01:08:42;;;;;;;;;;;;;;;15.94;55.56;100372.44;5008167;28;7195;-74
2023/04/29 01:11:11;;;;;;;;;;;;;;;15.88;55.72;100376.53;4972226;28;7255;-74
2023/04/29 01:13:49;;;;;;;;;;;;;;;15.87;55.64;100387.69;4990824;28;6808;-73
2023/04/29 01:16:30;;;;;;;;;;;;;;;15.85;55.36;100381.63;4984093;28;6874;-73
2023/04/29 01:19:14;;;;;;;;;;;;;;;15.83;55.93;100389.31;4991056;28;7786;-76
2023/04/29 01:21:47;;;;;;;;;;;;;;;15.80;55.47;100384.97;4988107;28;6812;-73
2023/04/29 01:24:14;;;;;;;;;;;;;;;15.79;56.03;100387.50;4977575;28;6938;-73
2023/04/29 01:26:54;;;;;;;;;;;;;;;15.78;55.58;100390.94;5008367;28;7300;-75
2023/04/29 01:29:44;;;;;;;;;;;;;;;15.76;55.64;100392.59;5009213;28;6993;-76
2023/04/29 01:32:22;;;;;;;;;;;;;;;15.74;56.00;100389.06;4980056;28;6828;-74
2023/04/29 01:35:09;;;;;;;;;;;;;;;15.72;56.05;100393.34;4980550;28;6999;-76
2023/04/29 01:38:06;;;;;;;;;;;;;;;15.72;55.87;100403.66;5013491;28;6843;-73
2023/04/29 01:41:07;;;;;;;;;;;;;;;15.68;55.90;100394.97;5010044;28;7016;-74
2023/04/29 01:43:37;;;;;;;;;;;;;;;15.66;55.85;100399.22;4952774;28;7249;-74
2023/04/29 01:46:08;;;;;;;;;;;;;;;15.63;55.83;100410.34;4978782;28;7418;-74
2023/04/29 01:48:35;;;;;;;;;;;;;;;15.62;55.96;100403.41;4973560;28;7178;-73
2023/04/29 01:51:01;;;;;;;;;;;;;;;15.60;55.61;100409.41;4974892;28;6953;-74
2023/04/29 01:53:27;;;;;;;;;;;;;;;15.57;55.26;100411.88;4975627;28;6918;-75
2023/04/29 01:55:52;;;;;;;;;;;;;;;15.53;55.93;100408.34;4981740;28;7010;-73
2023/04/29 01:58:18;;;;;;;;;;;;;;;15.51;55.53;100418.63;4983835;28;6940;-74
2023/04/29 02:00:44;;;;;;;;;;;;;;;15.50;55.97;100410.84;4975802;28;7132;-74
2023/04/29 02:03:10;;;;;;;;;;;;;;;15.48;55.54;100417.69;4966955;28;8566;-74
2023/04/29 02:05:36;;;;;;;;;;;;;;;15.44;55.88;100419.28;4967182;28;7162;-73
2023/04/29 02:08:02;;;;;;;;;;;;;;;15.43;55.85;100424.41;4976693;28;6768;-74
2023/04/29 02:10:28;;;;;;;;;;;;;;;15.40;55.99;100425.19;4975098;28;7825;-74
2023/04/29 02:12:53;;;;;;;;;;;;;;;15.38;55.31;100427.75;4975146;28;7154;-73
2023/04/29 02:15:20;;;;;;;;;;;;;;;15.37;55.43;100438.91;4983173;28;6963;-74
2023/04/29 02:17:45;;;;;;;;;;;;;;;15.35;55.57;100427.63;4974453;28;6820;-74
2023/04/29 02:20:12;;;;;;;;;;;;;;;15.34;55.95;100433.63;4976237;28;7999;-73
2023/04/29 02:22:38;;;;;;;;;;;;;;;15.33;55.94;100437.03;4976338;28;6832;-73
2023/04/29 02:25:05;;;;;;;;;;;;;;;15.33;55.79;100429.31;4963382;28;7142;-74
2023/04/29 02:27:31;;;;;;;;;;;;;;;15.31;55.89;100433.56;4980248;28;6910;-75
2023/04/29 02:29:56;;;;;;;;;;;;;;;15.32;55.82;100437.88;4995074;28;6943;-74
2023/04/29 02:32:22;;;;;;;;;;;;;;;15.32;55.91;100437.03;4974891;28;6839;-73
2023/04/29 02:34:48;;;;;;;;;;;;;;;15.32;55.61;100440.47;4978835;28;6784;-77
2023/04/29 02:37:14;;;;;;;;;;;;;;;15.32;55.53;100443.03;5006521;28;6978;-73
2023/04/29 02:39:40;;;;;;;;;;;;;;;15.32;55.80;100449.94;4975066;28;6776;-75
2023/04/29 02:42:06;;;;;;;;;;;;;;;15.30;55.46;100459.31;4971501;28;6831;-73
2023/04/29 02:44:31;;;;;;;;;;;;;;;15.25;55.25;100448.84;4982056;28;6791;-79
2023/04/29 02:46:57;;;;;;;;;;;;;;;15.23;55.72;100453.09;4974555;28;7337;-81
2023/04/29 02:49:23;;;;;;;;;;;;;;;15.19;55.38;100461.59;4973246;28;7601;-78
2023/04/29 02:51:48;;;;;;;;;;;;;;;15.13;55.22;100462.28;4979938;28;6920;-77
2023/04/29 02:54:15;;;;;;;;;;;;;;;15.09;55.84;100463.00;4977867;28;7020;-80
2023/04/29 02:56:42;;;;;;;;;;;;;;;15.05;55.62;100469.78;4977425;28;6860;-79
2023/04/29 02:59:08;;;;;;;;;;;;;;;15.02;55.34;100467.13;4965102;28;8527;-76
2023/04/29 03:01:34;;;;;;;;;;;;;;;14.99;55.97;100469.63;4958417;28;8503;-76
2023/04/29 03:04:00;;;;;;;;;;;;;;;14.96;56.08;100470.38;4988747;28;8563;-76
2023/04/29 03:06:26;;;;;;;;;;;;;;;14.96;55.95;100475.53;4958687;28;6978;-76
2023/04/29 03:08:52;;;;;;;;;;;;;;;14.96;56.20;100474.66;4962053;28;6983;-76
2023/04/29 03:11:19;;;;;;;;;;;;;;;14.96;55.59;100482.41;4977877;28;6948;-76
2023/04/29 03:13:45;;;;;;;;;;;;;;;14.93;55.73;100485.78;4977592;28;7223;-76
2023/04/29 03:16:13;;;;;;;;;;;;;;;14.93;55.91;100477.16;4959811;28;6961;-76
2023/04/29 03:18:39;;;;;;;;;;;;;;;14.93;56.31;100480.63;4974276;28;6816;-76
2023/04/29 03:21:05;;;;;;;;;;;;;;;14.90;56.14;100482.22;4972111;28;6848;-76
2023/04/29 03:23:30;;;;;;;;;;;;;;;14.89;56.17;100488.22;4974252;28;6840;-76
2023/04/29 03:25:56;;;;;;;;;;;;;;;14.87;56.25;100493.31;4971605;28;7016;-75
2023/04/29 03:28:22;;;;;;;;;;;;;;;14.84;56.50;100496.66;4973761;28;6960;-76
2023/04/29 03:30:48;;;;;;;;;;;;;;;14.82;56.48;100493.19;4982552;28;6996;-76
2023/04/29 03:33:14;;;;;;;;;;;;;;;14.79;56.37;100492.19;4967191;28;6776;-76
2023/04/29 03:35:39;;;;;;;;;;;;;;;14.78;55.81;100493.03;4976447;28;7468;-76
2023/04/29 03:38:05;;;;;;;;;;;;;;;14.76;56.47;100494.69;4957620;28;8449;-76
2023/04/29 03:40:31;;;;;;;;;;;;;;;14.72;56.11;100494.56;4977517;28;6876;-76
2023/04/29 03:42:57;;;;;;;;;;;;;;;14.74;56.73;100496.34;4969865;28;7043;-76
2023/04/29 03:45:22;;;;;;;;;;;;;;;14.71;56.62;100495.34;4970515;28;6963;-76
2023/04/29 03:47:48;;;;;;;;;;;;;;;14.68;56.59;100495.28;4972078;28;7003;-76
2023/04/29 03:50:14;;;;;;;;;;;;;;;14.65;56.50;100496.88;4976710;28;6776;-76
2023/04/29 03:52:39;;;;;;;;;;;;;;;14.64;57.04;100501.16;4990228;28;6776;-76
2023/04/29 03:55:06;;;;;;;;;;;;;;;14.63;56.58;100502.00;4958492;28;7155;-76
2023/04/29 03:57:31;;;;;;;;;;;;;;;14.61;56.72;100497.59;4963513;28;7019;-76
2023/04/29 03:59:57;;;;;;;;;;;;;;;14.59;56.58;100505.28;4969341;28;9212;-76
2023/04/29 04:02:23;;;;;;;;;;;;;;;14.57;57.04;100510.38;4969593;28;6950;-76
2023/04/29 04:04:48;;;;;;;;;;;;;;;14.54;56.68;100512.88;4988460;28;7344;-76
2023/04/29 04:07:14;;;;;;;;;;;;;;;14.50;57.38;100513.59;4993369;28;6803;-76
2023/04/29 04:09:40;;;;;;;;;;;;;;;14.46;57.32;100509.16;4954843;28;8578;-76
2023/04/29 04:12:05;;;;;;;;;;;;;;;14.43;57.57;100516.78;4990638;28;7004;-76
2023/04/29 04:14:31;;;;;;;;;;;;;;;14.41;56.66;100524.47;4974767;28;6956;-76
2023/04/29 04:16:56;;;;;;;;;;;;;;;14.39;56.84;100523.53;4966304;28;7233;-76
2023/04/29 04:19:22;;;;;;;;;;;;;;;14.34;57.28;100530.25;4972497;28;6772;-76
2023/04/29 04:21:48;;;;;;;;;;;;;;;14.27;56.77;100526.56;4974300;28;7021;-76
2023/04/29 04:24:13;;;;;;;;;;;;;;;14.22;57.08;100535.84;4963282;28;8356;-76
2023/04/29 04:26:41;;;;;;;;;;;;;;;14.20;57.60;100536.63;4996537;28;7218;-76
2023/04/29 04:29:06;;;;;;;;;;;;;;;14.16;57.91;100538.22;4963428;28;7250;-76
2023/04/29 04:31:32;;;;;;;;;;;;;;;14.15;57.57;100539.94;4990962;28;7137;-76
2023/04/29 04:33:58;;;;;;;;;;;;;;;14.16;57.17;100538.22;4979260;28;6768;-76
2023/04/29 04:36:24;;;;;;;;;;;;;;;14.18;57.81;100554.59;4979349;28;6791;-76
2023/04/29 04:38:50;;;;;;;;;;;;;;;14.17;57.94;100552.84;4973238;28;6779;-76
2023/04/29 04:41:16;;;;;;;;;;;;;;;14.18;57.92;100546.88;4991096;28;7195;-75
2023/04/29 04:43:42;;;;;;;;;;;;;;;14.18;58.28;100554.59;5013926;28;6977;-75
2023/04/29 04:46:13;;;;;;;;;;;;;;;14.17;58.46;100558.00;4978361;28;8021;-76
2023/04/29 04:48:38;;;;;;;;;;;;;;;14.16;57.80;100561.41;4959820;28;7222;-76
2023/04/29 04:51:12;;;;;;;;;;;;;;;14.16;57.70;100566.56;5014030;28;6807;-76
2023/04/29 04:53:39;;;;;;;;;;;;;;;14.14;58.11;100570.78;4978114;28;7111;-76
2023/04/29 04:56:06;;;;;;;;;;;;;;;14.12;57.67;100577.59;4961571;28;7166;-76
2023/04/29 04:58:32;;;;;;;;;;;;;;;14.08;58.56;100580.88;4965762;28;7004;-76
2023/04/29 05:01:01;;;;;;;;;;;;;;;14.05;58.15;100579.06;4979060;28;6800;-76
2023/04/29 05:03:27;;;;;;;;;;;;;;;14.03;57.67;100586.75;4971612;28;7118;-76
2023/04/29 05:05:58;;;;;;;;;;;;;;;14.01;58.66;100583.22;4968599;28;8419;-76
2023/04/29 05:08:25;;;;;;;;;;;;;;;14.00;57.97;100586.63;4995713;28;6815;-76
2023/04/29 05:10:52;;;;;;;;;;;;;;;13.98;58.38;100587.41;4969586;28;8388;-76
2023/04/29 05:13:18;;;;;;;;;;;;;;;13.99;58.37;100594.31;4982767;28;6990;-76
2023/04/29 05:15:45;;;;;;;;;;;;;;;13.98;58.69;100595.97;4981151;28;7162;-76
2023/04/29 05:18:11;;;;;;;;;;;;;;;13.98;58.54;100598.56;4980598;28;6863;-76
2023/04/29 05:20:37;;;;;;;;;;;;;;;13.98;58.20;100603.72;4973029;28;6859;-76
2023/04/29 05:23:03;;;;;;;;;;;;;;;13.95;58.63;100605.28;4966353;28;7294;-76
2023/04/29 05:25:29;;;;;;;;;;;;;;;13.92;58.98;100602.63;4987077;28;7064;-76
2023/04/29 05:27:54;;;;;;;;;;;;;;;13.91;58.51;100617.22;4995671;28;6978;-76
2023/04/29 05:30:20;;;;;;;;;;;;;;;13.89;59.12;100613.69;4980602;28;6947;-76
2023/04/29 05:32:47;;;;;;;;;;;;;;;13.89;58.91;100616.25;4978815;28;6848;-76
2023/04/29 05:35:14;;;;;;;;;;;;;;;13.91;58.70;100622.38;5016077;28;8302;-76
2023/04/29 05:37:41;;;;;;;;;;;;;;;13.91;58.83;100622.38;4977566;28;7315;-76
2023/04/29 05:40:08;;;;;;;;;;;;;;;13.91;59.57;100619.78;4984364;28;7149;-76
2023/04/29 05:42:34;;;;;;;;;;;;;;;13.92;58.88;100623.22;4976468;28;6792;-76
2023/04/29 05:44:59;;;;;;;;;;;;;;;13.93;58.95;100627.56;4978640;28;6840;-78
2023/04/29 05:47:25;;;;;;;;;;;;;;;13.94;59.56;100631.88;4988632;28;6968;-76
2023/04/29 05:49:51;;;;;;;;;;;;;;;13.98;58.83;100633.78;4995130;28;6806;-75
2023/04/29 05:52:16;;;;;;;;;;;;;;;14.03;59.25;100640.84;4977034;28;7253;-75
2023/04/29 05:54:42;;;;;;;;;;;;;;;14.08;59.58;100642.72;4968612;28;6804;-75
2023/04/29 05:57:08;;;;;;;;;;;;;;;14.13;59.14;100643.78;4979800;28;6917;-76
2023/04/29 05:59:33;;;;;;;;;;;;;;;14.19;59.02;100650.84;4969844;28;6847;-76
2023/04/29 06:01:59;;;;;;;;;;;;;;;14.22;58.60;100654.44;4967751;28;9842;-76
2023/04/29 06:04:26;;;;;;;;;;;;;;;14.25;59.16;100654.53;4969932;28;9504;-78
2023/04/29 06:06:55;;;;;;;;;;;;;;;14.27;59.35;100662.34;4978738;28;9466;-78
2023/04/29 06:09:24;;;;;;;;;;;;;;;14.28;59.50;100658.94;4972425;28;9287;-78
2023/04/29 06:11:50;;;;;;;;;;;;;;;14.31;59.26;100666.78;4977519;28;9751;-78
2023/04/29 06:14:16;;;;;;;;;;;;;;;14.34;59.26;100666.00;4958487;28;9293;-78
2023/04/29 06:16:42;;;;;;;;;;;;;;;14.33;58.41;100666.84;4971744;28;8205;-76
2023/04/29 06:19:08;;;;;;;;;;;;;;;14.33;58.81;100672.00;4994713;28;9344;-76
2023/04/29 06:21:34;;;;;;;;;;;;;;;14.33;58.74;100679.72;4974277;28;8538;-75
2023/04/29 06:23:59;;;;;;;;;;;;;;;14.34;59.45;100684.06;4969953;28;6987;-76
2023/04/29 06:26:25;;;;;;;;;;;;;;;14.36;59.39;100688.47;4976625;28;10460;-76
2023/04/29 06:28:50;;;;;;;;;;;;;;;14.42;59.59;100688.66;4975603;28;6792;-76
2023/04/29 06:31:16;;;;;;;;;;;;;;;14.46;59.16;100694.81;4974940;28;6788;-76
2023/04/29 06:33:42;;;;;;;;;;;;;;;14.50;58.88;100686.41;4995246;28;6976;-76
2023/04/29 06:36:07;;;;;;;;;;;;;;;14.51;58.47;100693.31;4977393;28;6776;-76
2023/04/29 06:38:33;;;;;;;;;;;;;;;14.52;58.54;100694.16;4977980;28;6760;-76
2023/04/29 06:41:03;;;;;;;;;;;;;;;14.52;58.53;100705.38;4974730;28;6894;-76
2023/04/29 06:43:32;;;;;;;;;;;;;;;14.52;59.21;100704.47;4976396;28;8912;-76
2023/04/29 06:45:58;;;;;;;;;;;;;;;14.51;58.64;100711.34;4980116;28;7274;-76
2023/04/29 06:48:26;;;;;;;;;;;;;;;14.50;58.65;100707.03;4994552;28;7122;-76
2023/04/29 06:50:57;;;;;;;;;;;;;;;14.52;58.29;100713.13;4977342;28;6982;-76
2023/04/29 06:53:23;;;;;;;;;;;;;;;14.54;58.67;100708.03;4981017;28;8590;-76
2023/04/29 06:55:49;;;;;;;;;;;;;;;14.57;59.16;100713.28;4974482;28;6796;-76
2023/04/29 06:58:17;;;;;;;;;;;;;;;14.56;58.53;100712.38;4976625;28;6804;-76
2023/04/29 07:00:45;;;;;;;;;;;;;;;14.55;58.03;100717.50;4992616;28;6990;-76
2023/04/29 07:03:12;;;;;;;;;;;;;;;14.52;58.78;100720.84;4958713;28;7573;-76
2023/04/29 07:05:39;;;;;;;;;;;;;;;14.52;58.77;100726.00;4988794;28;7019;-76
2023/04/29 07:08:05;;;;;;;;;;;;;;;14.52;58.23;100731.16;4977173;28;6955;-76
2023/04/29 07:10:31;;;;;;;;;;;;;;;14.56;58.65;100730.44;4976755;28;6788;-80
2023/04/29 07:12:59;;;;;;;;;;;;;;;14.57;58.64;100726.19;4975088;28;7126;-76
2023/04/29 07:15:28;;;;;;;;;;;;;;;14.55;58.77;100736.44;4989144;28;7202;-80
2023/04/29 07:17:55;;;;;;;;;;;;;;;14.54;58.54;100739.84;4976047;28;9984;-80
2023/04/29 07:20:21;;;;;;;;;;;;;;;14.51;58.28;100744.00;4999732;28;7176;-81
2023/04/29 07:22:46;;;;;;;;;;;;;;;14.44;58.48;100746.38;5013088;28;8903;-80
2023/04/29 07:25:13;;;;;;;;;;;;;;;14.38;58.68;100753.84;4976598;28;6780;-78
2023/04/29 07:27:39;;;;;;;;;;;;;;;14.35;58.84;100753.75;4996612;28;7237;-79
2023/04/29 07:30:05;;;;;;;;;;;;;;;14.35;58.91;100761.47;4978988;28;7136;-80
2023/04/29 07:32:32;;;;;;;;;;;;;;;14.37;58.31;100759.84;4976496;28;8678;-81
2023/04/29 07:34:58;;;;;;;;;;;;;;;14.42;58.60;100765.16;4983488;28;6812;-80
2023/04/29 07:37:24;;;;;;;;;;;;;;;14.48;58.68;100770.53;4999256;28;6792;-81
2023/04/29 07:39:50;;;;;;;;;;;;;;;14.54;59.22;100764.75;4991409;28;8600;-79
2023/04/29 07:42:16;;;;;;;;;;;;;;;14.62;58.55;100767.63;4981344;28;8520;-80
2023/04/29 07:44:44;;;;;;;;;;;;;;;14.69;58.61;100769.63;4977299;28;6935;-81
2023/04/29 07:47:11;;;;;;;;;;;;;;;14.75;58.33;100769.00;4979059;28;6800;-80
2023/04/29 07:49:38;;;;;;;;;;;;;;;14.84;58.50;100775.34;4971466;28;7028;-80
2023/04/29 07:52:08;;;;;;;;;;;;;;;14.94;58.28;100768.84;4960919;28;8469;-76
2023/04/29 07:54:35;;;;;;;;;;;;;;;15.02;58.02;100773.38;4979880;28;6972;-80
2023/04/29 07:57:03;;;;;;;;;;;;;;;15.03;57.88;100780.31;4975523;28;7238;-81
2023/04/29 07:59:30;;;;;;;;;;;;;;;15.05;58.11;100774.38;4983932;28;8577;-79
2023/04/29 08:01:56;;;;;;;;;;;;;;;15.09;58.00;100778.81;5012647;28;7328;-77
2023/04/29 08:04:22;;;;;;;;;;;;;;;15.14;57.69;100781.56;4980239;28;6944;-78
2023/04/29 08:06:48;;;;;;;;;;;;;;;15.23;57.67;100788.75;4980896;28;6914;-80
2023/04/29 08:09:15;;;;;;;;;;;;;;;15.28;57.98;100788.09;4982920;28;7568;-78
2023/04/29 08:11:42;;;;;;;;;;;;;;;15.32;57.76;100791.66;4976398;28;7396;-78
2023/04/29 08:14:08;;;;;;;;;;;;;;;15.35;57.48;100796.91;4983499;28;7397;-80
2023/04/29 08:16:33;;;;;;;;;;;;;;;15.37;57.27;100800.47;4975863;28;6963;-80
2023/04/29 08:18:59;;;;;;;;;;;;;;;15.39;57.62;100798.78;4994092;28;7568;-79
2023/04/29 08:21:26;;;;;;;;;;;;;;;15.37;57.08;100794.41;4979812;28;6787;-80
2023/04/29 08:23:52;;;;;;;;;;;;;;;15.35;57.12;100806.38;4964272;28;6991;-79
2023/04/29 08:26:18;;;;;;;;;;;;;;;15.27;56.98;100801.81;4983980;28;6973;-80
2023/04/29 08:28:44;;;;;;;;;;;;;;;15.23;57.32;100804.25;4983498;28;6859;-80
2023/04/29 08:31:20;;;;;;;;;;;;;;;15.21;57.42;100805.91;4983257;28;6772;-76
2023/04/29 08:33:47;;;;;;;;;;;;;;;15.17;56.58;100814.38;5014256;28;7927;-82
2023/04/29 08:36:13;;;;;;;;;;;;;;;15.13;57.19;100809.06;4985348;28;7239;-81
2023/04/29 08:38:39;;;;;;;;;;;;;;;15.11;57.59;100815.91;4999426;28;6796;-79
2023/04/29 08:41:08;;;;;;;;;;;;;;;15.10;57.13;100823.56;4971973;28;6851;-81
2023/04/29 08:43:41;;;;;;;;;;;;;;;15.03;57.03;100822.47;4965172;28;8931;-81
2023/04/29 08:46:08;;;;;;;;;;;;;;;14.96;56.68;100826.53;4984753;28;6994;-80
2023/04/29 08:48:36;;;;;;;;;;;;;;;14.89;57.22;100826.28;5003385;28;6804;-81
2023/04/29 08:51:03;;;;;;;;;;;;;;;14.86;57.71;100829.59;4988729;28;6983;-81
2023/04/29 08:53:29;;;;;;;;;;;;;;;14.83;57.72;100834.66;4982747;28;8557;-82
2023/04/29 08:56:07;;;;;;;;;;;;;;;14.81;57.25;100834.59;4970489;28;6978;-80
2023/04/29 08:58:35;;;;;;;;;;;;;;;14.80;56.92;100827.69;4985242;28;6994;-80
2023/04/29 09:01:01;;;;;;;;;;;;;;;14.84;57.34;100831.25;5015430;28;7047;-81
2023/04/29 09:04:00;;;;;;;;;;;;;;;14.88;57.86;100835.69;4998805;28;6938;-80
2023/04/29 09:06:26;;;;;;;;;;;;;;;14.89;57.81;100831.44;4965901;28;7611;-81
2023/04/29 09:08:52;;;;;;;;;;;;;;;14.94;57.50;100832.47;4957200;28;7274;-79
2023/04/29 09:11:19;;;;;;;;;;;;;;;15.04;57.90;100838.84;4974707;28;7797;-81
2023/04/29 09:13:44;;;;;;;;;;;;;;;15.17;58.07;100833.31;4984468;28;6784;-82
2023/04/29 09:16:13;;;;;;;;;;;;;;;15.36;57.91;100832.28;4975897;28;6780;-80
2023/04/29 09:18:50;;;;;;;;;;;;;;;15.56;58.02;100837.25;4973346;28;7842;-81
2023/04/29 09:21:26;;;;;;;;;;;;;;;15.84;58.49;100840.78;4992687;28;6995;-77
2023/04/29 09:24:00;;;;;;;;;;;;;;;16.24;58.60;100833.47;4979401;28;7025;-78
2023/04/29 09:26:27;;;;;;;;;;;;;;;16.67;57.83;100831.31;4981183;28;6796;-77
2023/04/29 09:29:04;;;;;;;;;;;;;;;17.24;57.66;100834.69;4994171;28;6994;-78
2023/04/29 09:31:30;;;;;;;;;;;;;;;17.76;56.52;100836.88;5011864;28;7166;-81
2023/04/29 09:33:57;;;;;;;;;;;;;;;18.27;55.75;100832.09;4975745;28;6856;-77
2023/04/29 09:36:44;;;;;;;;;;;;;;;18.73;54.42;100832.25;4995753;28;7171;-82
2023/04/29 09:39:12;;;;;;;;;;;;;;;19.05;53.59;100833.78;4984536;28;6796;-81
2023/04/29 09:42:01;;;;;;;;;;;;;;;19.36;52.32;100834.38;4976271;28;7276;-81
2023/04/29 09:44:34;;;;;;;;;;;;;;;19.56;52.07;100833.00;5013676;28;6792;-79
2023/04/29 09:47:07;;;;;;;;;;;;;;;19.72;51.32;100838.50;4978613;28;6845;-81
2023/04/29 09:49:39;;;;;;;;;;;;;;;19.90;50.62;100839.66;4980873;28;8364;-83
2023/04/29 09:52:09;;;;;;;;;;;;;;;20.05;50.02;100836.47;4984968;28;7183;-80
2023/04/29 09:54:37;;;;;;;;;;;;;;;20.14;49.75;100841.81;4978644;28;7278;-81
2023/04/29 09:57:05;;;;;;;;;;;;;;;20.10;48.80;100846.09;4982004;28;6847;-82
2023/04/29 09:59:34;;;;;;;;;;;;;;;20.01;48.35;100855.47;4974775;28;7242;-79
2023/04/29 10:02:06;;;;;;;;;;;;;;;19.75;47.96;100858.44;4978978;28;6812;-80
2023/04/29 10:04:37;;;;;;;;;;;;;;;19.37;47.47;100859.53;4976056;28;7279;-80
2023/04/29 10:07:03;;;;;;;;;;;;;;;19.03;47.47;100866.66;4971934;28;8047;-76
2023/04/29 10:09:30;;;;;;;;;;;;;;;18.78;48.78;100860.91;4966719;28;7360;-78
2023/04/29 10:11:56;;;;;;;;;;;;;;;18.64;48.71;100864.09;4973086;28;6961;-78
2023/04/29 10:14:24;;;;;;;;;;;;;;;18.57;49.22;100867.38;4961679;28;6981;-81
2023/04/29 10:17:30;;;;;;;;;;;;;;;18.53;48.50;100875.94;4969448;28;7148;-81
2023/04/29 10:20:05;;;;;;;;;;;;;;;18.45;49.30;100868.88;4952724;28;6816;-82
2023/04/29 10:22:49;;;;;;;;;;;;;;;18.39;48.81;100879.09;4977879;28;6994;-80
2023/04/29 10:25:17;;;;;;;;;;;;;;;18.30;48.29;100878.88;5012506;28;6977;-77
2023/04/29 10:27:46;;;;;;;;;;;;;;;18.18;48.39;100888.13;4976598;28;6987;-77
2023/04/29 10:30:17;;;;;;;;;;;;;;;18.08;48.37;100893.03;4982891;28;8508;-81
2023/04/29 10:32:45;;;;;;;;;;;;;;;17.96;48.88;100885.78;4992657;28;8079;-78
2023/04/29 10:35:14;;;;;;;;;;;;;;;17.82;48.55;100883.72;4977412;28;7904;-79
2023/04/29 10:37:42;;;;;;;;;;;;;;;17.78;48.43;100889.69;4992038;28;8111;-79
2023/04/29 10:40:17;;;;;;;;;;;;;;;17.74;48.86;100893.00;4978106;28;7180;-77
2023/04/29 10:42:50;;;;;;;;;;;;;;;17.73;48.57;100888.66;4978583;28;6996;-80
2023/04/29 10:45:26;;;;;;;;;;;;;;;17.69;49.10;100887.69;4981316;28;6824;-80
2023/04/29 10:48:01;;;;;;;;;;;;;;;17.66;48.97;100889.34;4977801;28;6796;-81
2023/04/29 10:50:32;;;;;;;;;;;;;;;17.67;49.14;100899.75;5007226;28;8532;-80
2023/04/29 10:53:01;;;;;;;;;;;;;;;17.69;49.17;100894.63;4979883;28;7539;-81
2023/04/29 10:55:28;;;;;;;;;;;;;;;17.80;49.05;100893.19;5011673;28;7602;-77
2023/04/29 10:57:56;;;;;;;;;;;;;;;18.00;49.57;100890.22;4977970;28;6812;-76
2023/04/29 11:00:41;;;;;;;;;;;;;;;18.31;49.57;100889.28;5009698;28;6983;-81
2023/04/29 11:03:27;;;;;;;;;;;;;;;18.56;48.50;100886.41;4975796;28;8596;-81
2023/04/29 11:06:08;;;;;;;;;;;;;;;18.68;47.83;100881.47;4980451;28;6867;-81
2023/04/29 11:08:38;;;;;;;;;;;;;;;18.66;47.59;100898.75;4994251;28;6796;-81
2023/04/29 11:11:07;;;;;;;;;;;;;;;18.68;47.52;100890.97;4975244;28;7296;-80
2023/04/29 11:13:39;;;;;;;;;;;;;;;18.66;47.41;100893.56;4996928;28;6799;-80
2023/04/29 11:16:10;;;;;;;;;;;;;;;18.59;47.02;100887.34;5012222;28;6875;-80
2023/04/29 11:19:07;;;;;;;;;;;;;;;18.50;47.82;100891.44;4977040;28;6792;-82
2023/04/29 11:21:35;;;;;;;;;;;;;;;18.38;47.90;100898.09;4997290;28;6998;-80
2023/04/29 11:24:02;;;;;;;;;;;;;;;18.34;47.73;100895.41;4980592;28;8436;-80
2023/04/29 11:26:28;;;;;;;;;;;;;;;18.36;48.22;100897.19;4975569;28;6859;-75
2023/04/29 11:28:57;;;;;;;;;;;;;;;18.42;48.18;100896.47;4983227;28;6808;-75
2023/04/29 11:31:32;;;;;;;;;;;;;;;18.50;47.86;100901.81;4992139;28;6875;-76
2023/04/29 11:33:59;;;;;;;;;;;;;;;18.54;47.88;100888.94;4985203;28;7306;-76
2023/04/29 11:36:26;;;;;;;;;;;;;;;18.64;48.02;100891.75;5000052;28;7223;-76
2023/04/29 11:38:52;;;;;;;;;;;;;;;18.69;47.80;100891.00;4983478;28;6991;-76
2023/04/29 11:41:20;;;;;;;;;;;;;;;18.76;48.08;100893.75;4967206;28;7073;-76
2023/04/29 11:43:46;;;;;;;;;;;;;;;18.78;47.84;100895.53;4981621;28;7675;-76
2023/04/29 11:46:15;;;;;;;;;;;;;;;18.74;47.49;100898.91;4985130;28;6775;-76
2023/04/29 11:48:48;;;;;;;;;;;;;;;18.71;47.52;100902.31;4983340;28;7046;-76
2023/04/29 11:51:18;;;;;;;;;;;;;;;18.74;47.64;100905.00;4997205;28;6800;-77
2023/04/29 11:53:45;;;;;;;;;;;;;;;18.93;48.34;100905.41;4965807;28;6978;-76
2023/04/29 11:56:10;;;;;;;;;;;;;;;19.20;48.08;100900.78;4979522;28;6780;-77
2023/04/29 11:58:37;;;;;;;;;;;;;;;19.37;46.98;100903.69;4979552;28;6788;-76
2023/04/29 12:01:04;;;;;;;;;;;;;;;19.36;46.64;100902.84;4965036;28;7039;-76
2023/04/29 12:03:32;;;;;;;;;;;;;;;19.39;46.81;100907.19;5013752;28;6992;-76
2023/04/29 12:06:00;;;;;;;;;;;;;;;19.40;46.74;100907.25;4978299;28;6903;-76
2023/04/29 12:08:29;;;;;;;;;;;;;;;19.38;46.38;100916.72;4973261;28;6999;-76
2023/04/29 12:10:58;;;;;;;;;;;;;;;19.34;46.72;100908.84;4974721;28;7011;-76
2023/04/29 12:13:28;;;;;;;;;;;;;;;19.34;46.43;100907.09;4995100;28;7018;-76
2023/04/29 12:15:56;;;;;;;;;;;;;;;19.33;46.42;100901.91;4993673;28;6799;-76
2023/04/29 12:18:23;;;;;;;;;;;;;;;19.35;46.99;100897.59;4963360;28;7257;-76
2023/04/29 12:20:54;;;;;;;;;;;;;;;19.41;46.45;100903.78;4996519;28;6812;-76
2023/04/29 12:23:27;;;;;;;;;;;;;;;19.46;47.00;100908.19;4995110;28;7198;-76
2023/04/29 12:25:59;;;;;;;;;;;;;;;19.59;47.20;100901.50;4979817;28;7974;-76
2023/04/29 12:28:26;;;;;;;;;;;;;;;19.79;46.49;100900.13;4964832;28;7159;-76
2023/04/29 12:30:53;;;;;;;;;;;;;;;19.98;46.00;100903.09;4977044;28;6812;-76
2023/04/29 12:33:28;;;;;;;;;;;;;;;20.04;45.84;100903.22;4979656;28;6784;-77
2023/04/29 12:35:56;;;;;;;;;;;;;;;20.01;45.65;100900.56;4993020;28;7154;-76
2023/04/29 12:38:41;;;;;;;;;;;;;;;19.98;45.53;100905.69;5015429;28;7261;-76
2023/04/29 12:41:07;;;;;;;;;;;;;;;19.93;45.15;100913.44;4977116;28;7395;-76
2023/04/29 12:43:32;;;;;;;;;;;;;;;19.86;45.76;100914.16;4971637;28;7542;-76
2023/04/29 12:46:05;;;;;;;;;;;;;;;19.80;45.71;100909.72;4979200;28;6964;-76
2023/04/29 12:48:32;;;;;;;;;;;;;;;19.85;45.50;100908.06;4981952;28;6804;-76
2023/04/29 12:51:00;;;;;;;;;;;;;;;19.97;46.11;100909.16;4973288;28;7022;-76
2023/04/29 12:53:28;;;;;;;;;;;;;;;20.07;45.74;100907.59;4995983;28;6799;-76
2023/04/29 12:55:54;;;;;;;;;;;;;;;20.16;45.38;100915.56;5008167;28;7194;-76